Terminal Aerodrome Forecast
Issued by NWS Jackson, MS

Home | Current Version | Previous Version | Text Only | Print | Product List | Glossary On
Versions: 1 2 3 4 5 6 7 8 9 10 11 12 13
718
FTUS44 KJAN 301720
TAFMEI
TAF
KMEI 301720Z 3018/3118 35006KT P6SM FEW025 SCT040
     FM310000 VRB03KT P6SM FEW050 SCT070
     FM311000 VRB03KT 5SM BR FEW250
     FM311400 VRB03KT P6SM BKN250=

USA.gov is the U.S. government's official web portal to all federal, state and local government web resources and services.